createdAt,value
2019-02-14T00:00:15.458Z,9.40
2019-02-14T00:02:42.309Z,8.60
2019-02-14T00:05:16.243Z,9.50
2019-02-14T00:07:36.004Z,15.40
2019-02-14T00:10:03.034Z,12.43
2019-02-14T00:12:29.894Z,8.90
2019-02-14T00:14:56.729Z,9.25
2019-02-14T00:17:23.575Z,7.60
2019-02-14T00:19:50.435Z,8.58
2019-02-14T00:22:17.292Z,9.70
2019-02-14T00:24:44.128Z,10.75
2019-02-14T00:27:10.973Z,9.85
2019-02-14T00:29:37.797Z,9.77
2019-02-14T00:32:04.646Z,9.95
2019-02-14T00:34:31.482Z,12.30
2019-02-14T00:36:58.362Z,11.60
2019-02-14T00:39:25.200Z,11.80
2019-02-14T00:41:52.046Z,10.35
2019-02-14T00:44:19.485Z,10.40
2019-02-14T00:46:46.342Z,12.35
2019-02-14T00:49:13.170Z,14.70
2019-02-14T00:51:40.027Z,15.40
2019-02-14T00:54:06.855Z,12.20
2019-02-14T00:56:33.701Z,9.03
2019-02-14T00:59:00.534Z,9.75
2019-02-14T01:01:27.399Z,8.60
2019-02-14T01:03:54.223Z,9.28
2019-02-14T01:06:21.066Z,8.53
2019-02-14T01:08:47.896Z,8.98
2019-02-14T01:11:14.749Z,7.90
2019-02-14T01:13:41.648Z,8.33
2019-02-14T01:16:08.530Z,7.80
2019-02-14T01:18:35.386Z,8.25
2019-02-14T01:21:02.234Z,8.13
2019-02-14T01:23:29.066Z,8.90
2019-02-14T01:25:55.923Z,8.23
2019-02-14T01:28:22.742Z,10.03
2019-02-14T01:30:49.594Z,9.43
2019-02-14T01:33:16.431Z,9.83
2019-02-14T01:35:43.270Z,10.60
2019-02-14T01:38:10.102Z,10.80
2019-02-14T01:40:37.200Z,10.85
2019-02-14T01:43:04.419Z,9.83
2019-02-14T01:45:31.276Z,10.70
2019-02-14T01:47:58.107Z,11.08
2019-02-14T01:50:24.964Z,9.90
2019-02-14T01:52:51.778Z,9.58
2019-02-14T01:55:18.627Z,9.13
2019-02-14T01:57:45.458Z,10.40
2019-02-14T02:00:13.706Z,11.10
2019-02-14T02:02:40.544Z,8.40
2019-02-14T02:05:07.429Z,10.65
2019-02-14T02:07:34.250Z,9.60
2019-02-14T02:10:01.103Z,8.60
2019-02-14T02:12:27.994Z,8.80
2019-02-14T02:14:54.845Z,9.90
2019-02-14T02:17:21.670Z,9.03
2019-02-14T02:19:48.518Z,9.90
2019-02-14T02:22:15.350Z,9.63
2019-02-14T02:24:42.189Z,9.70
2019-02-14T02:27:09.015Z,9.85
2019-02-14T02:29:35.874Z,8.10
2019-02-14T02:32:02.702Z,9.08
2019-02-14T02:34:29.578Z,9.00
2019-02-14T02:36:56.404Z,10.48
2019-02-14T02:39:23.251Z,9.93
2019-02-14T02:41:50.086Z,8.00
2019-02-14T02:44:16.928Z,9.05
2019-02-14T02:46:43.766Z,8.80
2019-02-14T02:49:10.609Z,8.60
2019-02-14T02:51:37.793Z,8.88
2019-02-14T02:54:04.647Z,8.60
2019-02-14T02:56:31.641Z,8.63
2019-02-14T02:58:58.486Z,8.58
2019-02-14T03:01:25.355Z,8.78
2019-02-14T03:03:52.187Z,9.07
2019-02-14T03:06:19.028Z,8.33
2019-02-14T03:08:45.862Z,9.15
2019-02-14T03:11:12.714Z,8.50
2019-02-14T03:13:39.546Z,10.08
2019-02-14T03:16:06.405Z,8.53
2019-02-14T03:18:33.242Z,9.30
2019-02-14T03:21:00.078Z,10.10
2019-02-14T03:23:26.910Z,9.13
2019-02-14T03:25:53.758Z,10.20
2019-02-14T03:28:20.582Z,9.90
2019-02-14T03:30:47.438Z,9.30
2019-02-14T03:33:14.267Z,9.80
2019-02-14T03:35:41.098Z,10.40
2019-02-14T03:38:07.931Z,8.90
2019-02-14T03:40:34.782Z,9.50
2019-02-14T03:43:01.622Z,9.48
2019-02-14T03:45:28.478Z,9.00
2019-02-14T03:47:55.301Z,8.73
2019-02-14T03:50:22.162Z,9.40
2019-02-14T03:52:49.014Z,9.57
2019-02-14T03:55:15.875Z,9.20
2019-02-14T03:57:42.707Z,9.13
2019-02-14T04:00:11.481Z,9.45
2019-02-14T04:02:38.321Z,8.30
2019-02-14T04:05:05.256Z,8.38
2019-02-14T04:07:32.094Z,8.90
2019-02-14T04:09:58.922Z,9.37
2019-02-14T04:12:25.767Z,9.10
2019-02-14T04:14:52.606Z,7.17
2019-02-14T04:17:19.454Z,8.35
2019-02-14T04:19:46.294Z,8.85
2019-02-14T04:22:13.151Z,7.97
2019-02-14T04:24:39.993Z,8.65
2019-02-14T04:27:06.842Z,8.37
2019-02-14T04:29:33.670Z,9.28
2019-02-14T04:32:00.516Z,8.60
2019-02-14T04:34:27.354Z,8.85
2019-02-14T04:36:55.813Z,9.35
2019-02-14T04:39:21.028Z,8.10
2019-02-14T04:41:47.883Z,9.95
2019-02-14T04:44:14.751Z,8.63
2019-02-14T04:46:41.654Z,10.40
2019-02-14T04:49:08.482Z,10.40
2019-02-14T04:51:35.366Z,7.90
2019-02-14T04:54:02.195Z,8.63
2019-02-14T04:56:29.046Z,8.60
2019-02-14T04:58:55.887Z,8.67
2019-02-14T05:01:22.752Z,8.50
2019-02-14T05:03:49.575Z,8.83
2019-02-14T05:06:16.422Z,9.00
2019-02-14T05:08:43.258Z,9.10
2019-02-14T05:11:10.118Z,8.10
2019-02-14T05:13:36.986Z,10.35
2019-02-14T05:16:03.846Z,9.40
2019-02-14T05:18:30.698Z,8.53
2019-02-14T05:20:57.546Z,9.15
2019-02-14T05:23:24.468Z,9.80
2019-02-14T05:25:51.288Z,7.37
2019-02-14T05:28:18.126Z,9.80
2019-02-14T05:30:44.963Z,9.30
2019-02-14T05:33:11.883Z,9.13
2019-02-14T05:35:38.719Z,9.90
2019-02-14T05:38:05.578Z,8.90
2019-02-14T05:40:32.408Z,9.00
2019-02-14T05:42:59.238Z,9.43
2019-02-14T05:45:26.074Z,8.70
2019-02-14T05:47:52.921Z,9.15
2019-02-14T05:50:19.750Z,9.20
2019-02-14T05:52:46.608Z,9.10
2019-02-14T05:55:13.554Z,8.70
2019-02-14T05:57:40.408Z,8.00
2019-02-14T06:00:09.310Z,7.37
2019-02-14T06:02:36.356Z,8.10
2019-02-14T06:05:04.190Z,8.68
2019-02-14T06:07:31.682Z,8.70
2019-02-14T06:09:58.533Z,10.80
2019-02-14T06:12:25.383Z,10.70
2019-02-14T06:14:52.214Z,10.05
2019-02-14T06:17:19.083Z,9.23
2019-02-14T06:19:45.921Z,9.83
2019-02-14T06:22:12.748Z,9.40
2019-02-14T06:24:39.602Z,8.57
2019-02-14T06:27:06.430Z,8.95
2019-02-14T06:29:33.278Z,8.67
2019-02-14T06:32:00.116Z,7.72
2019-02-14T06:34:26.986Z,8.80
2019-02-14T06:36:53.823Z,8.60
2019-02-14T06:39:20.671Z,7.37
2019-02-14T06:41:47.502Z,8.33
2019-02-14T06:44:14.346Z,8.65
2019-02-14T06:46:41.227Z,8.10
2019-02-14T06:49:08.074Z,8.80
2019-02-14T06:51:34.914Z,8.80
2019-02-14T06:54:01.771Z,7.70
2019-02-14T06:56:28.602Z,8.28
2019-02-14T06:58:55.450Z,8.30
2019-02-14T07:01:22.281Z,8.30
2019-02-14T07:03:49.127Z,9.15
2019-02-14T07:06:15.962Z,9.60
2019-02-14T07:08:42.810Z,8.10
2019-02-14T07:11:09.639Z,8.33
2019-02-14T07:13:37.220Z,9.00
2019-02-14T07:16:04.047Z,7.67
2019-02-14T07:18:30.961Z,8.30
2019-02-14T07:20:57.786Z,7.60
2019-02-14T07:23:24.633Z,9.00
2019-02-14T07:25:51.518Z,8.78
2019-02-14T07:28:18.386Z,8.93
2019-02-14T07:30:45.227Z,8.37
2019-02-14T07:33:12.158Z,10.65
2019-02-14T07:35:39.105Z,11.20
2019-02-14T07:38:05.961Z,10.07
2019-02-14T07:40:32.795Z,10.05
2019-02-14T07:42:59.635Z,12.43
2019-02-14T07:45:26.476Z,10.40
2019-02-14T07:47:53.316Z,12.00
2019-02-14T07:50:20.162Z,11.27
2019-02-14T07:52:46.998Z,12.58
2019-02-14T07:55:13.922Z,12.03
2019-02-14T07:57:40.711Z,13.70
2019-02-14T08:00:10.005Z,13.03
2019-02-14T08:02:36.831Z,11.70
2019-02-14T08:05:04.056Z,12.60
2019-02-14T08:07:35.868Z,13.72
2019-02-14T08:09:57.738Z,11.20
2019-02-14T08:12:24.570Z,13.88
2019-02-14T08:14:51.439Z,16.20
2019-02-14T08:17:18.269Z,13.43
2019-02-14T08:19:45.154Z,17.07
2019-02-14T08:22:11.978Z,17.65
2019-02-14T08:24:38.874Z,17.27
2019-02-14T08:27:05.699Z,17.52
2019-02-14T08:29:32.630Z,18.20
2019-02-14T08:31:59.498Z,17.77
2019-02-14T08:34:26.350Z,18.95
2019-02-14T08:36:53.191Z,17.92
2019-02-14T08:39:20.041Z,12.17
2019-02-14T08:41:46.858Z,13.32
2019-02-14T08:44:13.734Z,13.33
2019-02-14T08:46:40.567Z,13.70
2019-02-14T08:49:07.426Z,14.40
2019-02-14T08:51:34.263Z,14.13
2019-02-14T08:54:01.110Z,15.85
2019-02-14T08:56:27.953Z,13.57
2019-02-14T08:58:54.802Z,15.50
2019-02-14T09:01:21.635Z,15.03
2019-02-14T09:03:48.530Z,14.17
2019-02-14T09:06:15.361Z,14.57
2019-02-14T09:08:42.186Z,17.10
2019-02-14T09:11:09.051Z,14.50
2019-02-14T09:13:35.877Z,15.95
2019-02-14T09:16:02.735Z,15.00
2019-02-14T09:18:29.583Z,18.60
2019-02-14T09:20:56.438Z,19.67
2019-02-14T09:23:23.268Z,21.37
2019-02-14T09:25:50.111Z,26.65
2019-02-14T09:28:16.940Z,28.20
2019-02-14T09:30:43.795Z,33.67
2019-02-14T09:33:10.625Z,29.57
2019-02-14T09:35:37.473Z,27.15
2019-02-14T09:38:04.319Z,24.77
2019-02-14T09:40:31.186Z,18.92
2019-02-14T09:42:58.011Z,17.13
2019-02-14T09:45:24.861Z,13.40
2019-02-14T09:47:51.695Z,14.05
2019-02-14T09:50:18.641Z,14.50
2019-02-14T09:52:45.492Z,12.53
2019-02-14T09:55:12.344Z,12.20
2019-02-14T09:57:39.196Z,12.50
2019-02-14T10:00:08.752Z,12.93
2019-02-14T10:02:35.590Z,11.87
2019-02-14T10:05:02.577Z,12.40
2019-02-14T10:07:29.420Z,11.70
2019-02-14T10:09:56.269Z,13.23
2019-02-14T10:12:23.107Z,12.20
2019-02-14T10:14:49.959Z,12.77
2019-02-14T10:17:22.169Z,13.80
2019-02-14T10:19:43.666Z,12.10
2019-02-14T10:22:10.510Z,12.03
2019-02-14T10:24:37.354Z,11.23
2019-02-14T10:27:04.230Z,11.40
2019-02-14T10:29:31.075Z,12.40
2019-02-14T10:31:57.943Z,11.90
2019-02-14T10:34:24.782Z,11.90
2019-02-14T10:36:51.634Z,13.63
2019-02-14T10:39:18.474Z,14.30
2019-02-14T10:41:45.338Z,13.40
2019-02-14T10:44:12.186Z,11.13
2019-02-14T10:46:39.058Z,11.70
2019-02-14T10:49:05.919Z,11.03
2019-02-14T10:51:32.778Z,12.60
2019-02-14T10:53:59.694Z,11.37
2019-02-14T10:56:26.562Z,11.87
2019-02-14T10:58:53.419Z,11.17
2019-02-14T11:01:20.302Z,11.53
2019-02-14T11:03:47.163Z,11.90
2019-02-14T11:06:14.039Z,12.53
2019-02-14T11:08:40.927Z,11.17
2019-02-14T11:11:07.828Z,13.20
2019-02-14T11:13:34.809Z,12.63
2019-02-14T11:16:01.665Z,13.43
2019-02-14T11:18:28.543Z,12.30
2019-02-14T11:20:55.431Z,12.10
2019-02-14T11:23:22.298Z,10.47
2019-02-14T11:25:49.192Z,11.00
2019-02-14T11:28:16.063Z,11.33
2019-02-14T11:30:42.947Z,11.70
2019-02-14T11:33:09.818Z,13.30
2019-02-14T11:35:36.724Z,12.23
2019-02-14T11:38:03.604Z,13.17
2019-02-14T11:40:30.449Z,13.70
2019-02-14T11:42:57.342Z,13.13
2019-02-14T11:45:24.219Z,13.43
2019-02-14T11:47:51.264Z,11.73
2019-02-14T11:50:18.120Z,12.37
2019-02-14T11:52:44.955Z,13.20
2019-02-14T11:55:11.815Z,13.40
2019-02-14T11:57:38.658Z,14.33
2019-02-14T12:00:08.212Z,15.60
2019-02-14T12:02:35.013Z,15.70
2019-02-14T12:05:01.882Z,14.63
2019-02-14T12:07:28.745Z,13.90
2019-02-14T12:09:55.627Z,15.07
2019-02-14T12:12:22.970Z,14.93
2019-02-14T12:14:49.344Z,16.47
2019-02-14T12:17:16.486Z,15.17
2019-02-14T12:19:43.412Z,15.80
2019-02-14T12:22:10.286Z,14.90
2019-02-14T12:24:37.150Z,14.80
2019-02-14T12:27:04.018Z,15.30
2019-02-14T12:29:30.870Z,15.20
2019-02-14T12:31:57.726Z,14.07
2019-02-14T12:34:24.565Z,13.80
2019-02-14T12:36:51.426Z,14.43
2019-02-14T12:39:18.323Z,14.33
2019-02-14T12:41:45.179Z,13.60
2019-02-14T12:44:12.014Z,14.67
2019-02-14T12:46:38.895Z,14.17
2019-02-14T12:49:05.741Z,14.57
2019-02-14T12:51:32.630Z,16.00
2019-02-14T12:53:59.478Z,15.38
2019-02-14T12:56:26.336Z,13.97
2019-02-14T12:58:53.262Z,12.70
2019-02-14T13:01:21.924Z,13.07
2019-02-14T13:03:46.949Z,13.00
2019-02-14T13:06:13.842Z,11.63
2019-02-14T13:08:40.679Z,10.63
2019-02-14T13:11:07.599Z,10.43
2019-02-14T13:13:34.568Z,11.60
2019-02-14T13:16:01.824Z,11.50
2019-02-14T13:18:28.761Z,10.40
2019-02-14T13:20:55.619Z,10.70
2019-02-14T13:23:22.466Z,11.13
2019-02-14T13:25:49.330Z,10.37
2019-02-14T13:28:16.214Z,9.60
2019-02-14T13:30:43.127Z,8.80
2019-02-14T13:33:09.994Z,7.90
2019-02-14T13:35:36.843Z,8.17
2019-02-14T13:38:03.694Z,8.57
2019-02-14T13:40:30.530Z,8.87
2019-02-14T13:42:57.479Z,8.93
2019-02-14T13:45:24.409Z,8.73
2019-02-14T13:47:51.268Z,8.73
2019-02-14T13:50:18.121Z,8.30
2019-02-14T13:52:44.979Z,8.10
2019-02-14T13:55:11.846Z,7.77
2019-02-14T13:57:38.673Z,8.47
2019-02-14T14:00:08.891Z,7.90
2019-02-14T14:02:35.730Z,9.10
2019-02-14T14:05:02.587Z,7.97
2019-02-14T14:07:29.442Z,8.70
2019-02-14T14:09:56.279Z,8.37
2019-02-14T14:12:23.160Z,7.50
2019-02-14T14:14:49.999Z,7.50
2019-02-14T14:17:16.916Z,8.70
2019-02-14T14:19:43.758Z,8.70
2019-02-14T14:22:10.611Z,8.07
2019-02-14T14:24:37.590Z,7.50
2019-02-14T14:27:04.459Z,9.00
2019-02-14T14:29:31.282Z,7.80
2019-02-14T14:31:58.208Z,8.60
2019-02-14T14:34:25.062Z,8.93
2019-02-14T14:36:51.918Z,8.27
2019-02-14T14:39:18.771Z,7.73
2019-02-14T14:41:45.646Z,9.13
2019-02-14T14:44:20.087Z,8.40
2019-02-14T14:46:51.922Z,7.80
2019-02-14T14:49:18.771Z,7.10
2019-02-14T14:51:45.640Z,8.57
2019-02-14T14:54:12.521Z,9.73
2019-02-14T14:56:39.336Z,8.40
2019-02-14T14:59:06.203Z,8.73
2019-02-14T15:01:33.342Z,8.63
2019-02-14T15:04:00.183Z,7.70
2019-02-14T15:06:27.030Z,9.70
2019-02-14T15:08:53.910Z,9.58
2019-02-14T15:11:20.788Z,8.60
2019-02-14T15:13:47.646Z,8.83
2019-02-14T15:16:14.565Z,9.17
2019-02-14T15:18:41.439Z,9.43
2019-02-14T15:21:08.351Z,9.93
2019-02-14T15:23:35.218Z,11.20
2019-02-14T15:26:02.139Z,11.50
2019-02-14T15:28:29.002Z,9.57
2019-02-14T15:30:55.846Z,10.30
2019-02-14T15:33:22.687Z,11.03
2019-02-14T15:35:49.513Z,9.97
2019-02-14T15:38:16.371Z,10.70
2019-02-14T15:40:43.215Z,10.10
2019-02-14T15:43:10.203Z,10.53
2019-02-14T15:45:37.026Z,10.03
2019-02-14T15:48:03.918Z,10.43
2019-02-14T15:50:32.149Z,12.10
2019-02-14T15:52:57.631Z,11.50
2019-02-14T15:55:24.478Z,10.03
2019-02-14T15:57:51.363Z,10.30
2019-02-14T16:00:18.194Z,11.87
2019-02-14T16:02:45.044Z,10.00
2019-02-14T16:05:11.886Z,9.87
2019-02-14T16:07:39.573Z,10.30
2019-02-14T16:10:05.982Z,10.10
2019-02-14T16:12:32.497Z,10.10
2019-02-14T16:14:59.326Z,10.07
2019-02-14T16:17:26.182Z,10.90
2019-02-14T16:19:53.026Z,11.17
2019-02-14T16:22:19.938Z,11.60
2019-02-14T16:24:46.795Z,10.80
2019-02-14T16:27:13.645Z,11.63
2019-02-14T16:29:40.513Z,11.20
2019-02-14T16:32:07.359Z,10.97
2019-02-14T16:34:34.194Z,10.53
2019-02-14T16:37:01.030Z,10.93
2019-02-14T16:39:28.730Z,10.53
2019-02-14T16:41:54.747Z,10.10
2019-02-14T16:44:21.623Z,11.10
2019-02-14T16:46:48.471Z,10.73
2019-02-14T16:49:15.350Z,10.80
2019-02-14T16:51:42.193Z,10.93
2019-02-14T16:54:09.050Z,10.27
2019-02-14T16:56:35.889Z,11.37
2019-02-14T16:59:02.761Z,10.93
2019-02-14T17:01:29.606Z,11.73
2019-02-14T17:03:56.473Z,11.37
2019-02-14T17:06:23.319Z,11.40
2019-02-14T17:08:50.187Z,10.77
2019-02-14T17:11:17.083Z,11.40
2019-02-14T17:13:43.974Z,12.68
2019-02-14T17:16:10.826Z,12.50
2019-02-14T17:18:37.694Z,13.27
2019-02-14T17:21:04.571Z,11.57
2019-02-14T17:23:31.446Z,13.10
2019-02-14T17:25:58.298Z,15.40
2019-02-14T17:28:25.185Z,16.53
2019-02-14T17:30:53.606Z,17.13
2019-02-14T17:33:18.906Z,16.30
2019-02-14T17:35:45.748Z,18.07
2019-02-14T17:38:12.638Z,15.97
2019-02-14T17:40:45.785Z,15.60
2019-02-14T17:43:06.391Z,16.37
2019-02-14T17:45:33.302Z,17.83
2019-02-14T17:48:00.174Z,17.40
2019-02-14T17:50:27.070Z,16.73
2019-02-14T17:52:53.930Z,19.37
2019-02-14T17:55:20.865Z,18.17
2019-02-14T17:57:47.743Z,21.00
2019-02-14T18:00:14.583Z,19.30
2019-02-14T18:02:41.439Z,18.30
2019-02-14T18:05:08.379Z,21.93
2019-02-14T18:07:35.234Z,20.37
2019-02-14T18:10:02.091Z,19.47
2019-02-14T18:12:28.991Z,19.97
2019-02-14T18:14:55.843Z,18.57
2019-02-14T18:17:22.696Z,20.90
2019-02-14T18:19:49.530Z,22.30
2019-02-14T18:22:16.374Z,23.10
2019-02-14T18:24:43.279Z,21.23
2019-02-14T18:27:10.151Z,21.50
2019-02-14T18:29:37.010Z,20.27
2019-02-14T18:32:03.869Z,18.80
2019-02-14T18:34:30.687Z,21.90
2019-02-14T18:36:57.546Z,20.80
2019-02-14T18:39:24.390Z,20.30
2019-02-14T18:41:51.302Z,19.73
2019-02-14T18:44:18.158Z,20.60
2019-02-14T18:46:45.006Z,18.70
2019-02-14T18:49:11.858Z,20.60
2019-02-14T18:51:39.095Z,22.20
2019-02-14T18:54:05.971Z,19.47
2019-02-14T18:56:32.821Z,17.30
2019-02-14T18:58:59.709Z,18.27
2019-02-14T19:01:26.562Z,18.80
2019-02-14T19:03:53.431Z,17.10
2019-02-14T19:06:20.298Z,18.13
2019-02-14T19:08:47.182Z,16.17
2019-02-14T19:11:15.451Z,17.30
2019-02-14T19:13:41.751Z,17.80
2019-02-14T19:16:08.598Z,17.47
2019-02-14T19:18:35.788Z,18.00
2019-02-14T19:21:02.644Z,17.03
2019-02-14T19:23:29.576Z,17.23
2019-02-14T19:25:56.418Z,20.08
2019-02-14T19:28:23.273Z,19.75
2019-02-14T19:30:50.124Z,18.90
2019-02-14T19:33:16.975Z,18.80
2019-02-14T19:35:43.822Z,16.53
2019-02-14T19:38:10.683Z,16.90
2019-02-14T19:40:37.555Z,16.63
2019-02-14T19:43:04.414Z,16.93
2019-02-14T19:45:36.607Z,17.13
2019-02-14T19:47:58.118Z,18.95
2019-02-14T19:50:24.977Z,16.97
2019-02-14T19:52:51.819Z,19.00
2019-02-14T19:55:18.698Z,19.45
2019-02-14T19:57:45.554Z,17.43
2019-02-14T20:00:12.545Z,16.20
2019-02-14T20:02:39.378Z,16.10
2019-02-14T20:05:07.058Z,18.95
2019-02-14T20:07:33.902Z,17.90
2019-02-14T20:10:00.758Z,17.37
2019-02-14T20:12:27.615Z,16.80
2019-02-14T20:14:54.491Z,16.43
2019-02-14T20:17:21.772Z,16.50
2019-02-14T20:19:48.786Z,16.27
2019-02-14T20:22:15.630Z,17.37
2019-02-14T20:24:42.498Z,16.40
2019-02-14T20:27:09.335Z,15.90
2019-02-14T20:29:36.194Z,19.57
2019-02-14T20:32:03.054Z,18.10
2019-02-14T20:34:29.923Z,17.60
2019-02-14T20:36:56.762Z,17.07
2019-02-14T20:39:23.623Z,16.70
2019-02-14T20:41:50.474Z,16.30
2019-02-14T20:44:17.339Z,16.83
2019-02-14T20:46:44.162Z,18.20
2019-02-14T20:49:11.018Z,18.20
2019-02-14T20:51:38.725Z,18.17
2019-02-14T20:54:04.723Z,19.42
2019-02-14T20:56:31.630Z,17.90
2019-02-14T20:58:58.498Z,16.53
2019-02-14T21:01:25.315Z,15.73
2019-02-14T21:03:52.178Z,17.65
2019-02-14T21:06:19.006Z,16.63
2019-02-14T21:08:45.963Z,17.85
2019-02-14T21:11:12.806Z,16.30
2019-02-14T21:13:39.633Z,17.52
2019-02-14T21:16:06.489Z,15.70
2019-02-14T21:18:33.320Z,15.50
2019-02-14T21:21:00.187Z,17.40
2019-02-14T21:23:27.031Z,16.53
2019-02-14T21:25:54.231Z,15.57
2019-02-14T21:28:21.053Z,15.73
2019-02-14T21:30:47.942Z,14.13
2019-02-14T21:33:14.787Z,14.93
2019-02-14T21:35:41.641Z,16.02
2019-02-14T21:38:08.523Z,15.10
2019-02-14T21:40:35.390Z,15.00
2019-02-14T21:43:02.228Z,13.70
2019-02-14T21:45:29.086Z,14.20
2019-02-14T21:47:55.930Z,13.27
2019-02-14T21:50:22.786Z,13.30
2019-02-14T21:52:49.619Z,12.10
2019-02-14T21:55:16.692Z,13.50
2019-02-14T21:57:43.324Z,14.50
2019-02-14T22:00:12.418Z,12.07
2019-02-14T22:02:39.263Z,13.20
2019-02-14T22:05:06.654Z,12.97
2019-02-14T22:07:35.201Z,13.80
2019-02-14T22:10:00.595Z,12.80
2019-02-14T22:12:39.887Z,12.40
2019-02-14T22:14:54.205Z,12.23
2019-02-14T22:17:22.667Z,11.70
2019-02-14T22:19:47.907Z,12.13
2019-02-14T22:22:14.743Z,12.10
2019-02-14T22:24:41.644Z,12.77
2019-02-14T22:27:08.478Z,12.20
2019-02-14T22:29:35.331Z,12.20
2019-02-14T22:32:02.193Z,12.50
2019-02-14T22:34:29.026Z,12.80
2019-02-14T22:36:55.870Z,13.97
2019-02-14T22:39:22.694Z,13.72
2019-02-14T22:41:49.548Z,14.15
2019-02-14T22:44:16.379Z,13.30
2019-02-14T22:46:43.234Z,13.53
2019-02-14T22:49:10.135Z,12.40
2019-02-14T22:51:36.985Z,12.43
2019-02-14T22:54:03.827Z,12.50
2019-02-14T22:56:30.746Z,11.70
2019-02-14T22:58:57.588Z,11.03
2019-02-14T23:01:24.442Z,11.30
2019-02-14T23:03:51.273Z,11.60
2019-02-14T23:06:18.138Z,11.30
2019-02-14T23:08:44.969Z,11.70
2019-02-14T23:11:11.846Z,11.87
2019-02-14T23:13:38.693Z,11.53
2019-02-14T23:16:05.551Z,10.80
2019-02-14T23:18:32.378Z,10.97
2019-02-14T23:20:59.250Z,11.60
2019-02-14T23:23:26.094Z,11.17
2019-02-14T23:25:52.946Z,11.80
2019-02-14T23:28:19.790Z,10.63
2019-02-14T23:30:46.654Z,11.43
2019-02-14T23:33:13.498Z,10.07
2019-02-14T23:35:40.356Z,10.70
2019-02-14T23:38:07.197Z,9.90
2019-02-14T23:40:34.054Z,10.27
2019-02-14T23:43:04.648Z,10.50
2019-02-14T23:45:27.782Z,11.30
2019-02-14T23:47:54.626Z,11.67
2019-02-14T23:50:21.462Z,11.70
2019-02-14T23:52:48.316Z,10.40
2019-02-14T23:55:15.151Z,13.03
2019-02-14T23:57:42.030Z,11.63
